Terminal Aerodrome Forecast
Issued by NWS Blacksburg, VA

Current Version | Previous Version | Graphics & Text | Print | Product List | Glossary On
Versions: 1 2 3 4 5 6 7 8 9 10 11 12 13 14 15 16 17 18 19 20 21 22 23 24 25 26 27 28 29 30 31 32 33 34 35 36 37
000
FTUS41 KRNK 210131 AAA
TAFBLF
TAF AMD
KBLF 210131Z 2102/2124 15003KT P6SM VCTS BKN050CB
      TEMPO 2102/2103 4SM -TSRA BKN035CB
     FM210300 14004KT 6SM BR VCSH BKN040
     FM210600 13003KT 5SM BR OVC025
     FM211500 14005KT P6SM SCT025 BKN050=

USA.gov is the U.S. government's official web portal to all federal, state and local government web resources and services.